National Weather Service Raw Text Product

Displaying AFOS PIL: TAFMCW Received: 2017-12-07 11:34 UTC


807 
FTUS43 KDMX 071134
TAFMCW
TAF
KMCW 071134Z 0712/0812 32016G24KT P6SM SKC
     FM071700 28013G19KT P6SM FEW240
     FM080200 25008KT P6SM BKN070=